sensor_id;sensor_type;location;lat;lon;timestamp;pressure;altitude;pressure_sealevel;temperature;humidity
10897;BME280;5501;51.176;6.470;2022-09-09T00:02:24;100318.06;;;16.88;100.00
10897;BME280;5501;51.176;6.470;2022-09-09T00:07:47;100324.25;;;16.75;100.00
10897;BME280;5501;51.176;6.470;2022-09-09T00:13:19;100317.44;;;16.69;100.00
10897;BME280;5501;51.176;6.470;2022-09-09T00:18:48;100321.72;;;16.87;100.00
10897;BME280;5501;51.176;6.470;2022-09-09T00:23:55;100323.09;;;16.94;100.00
10897;BME280;5501;51.176;6.470;2022-09-09T00:29:05;100321.91;;;16.84;100.00
10897;BME280;5501;51.176;6.470;2022-09-09T00:34:18;100323.41;;;16.74;100.00
10897;BME280;5501;51.176;6.470;2022-09-09T00:39:39;100315.25;;;16.46;100.00
10897;BME280;5501;51.176;6.470;2022-09-09T00:44:52;100307.66;;;16.37;100.00
10897;BME280;5501;51.176;6.470;2022-09-09T00:55:44;100305.09;;;16.51;100.00
10897;BME280;5501;51.176;6.470;2022-09-09T01:00:51;100311.06;;;16.56;100.00
10897;BME280;5501;51.176;6.470;2022-09-09T01:11:04;100316.09;;;16.47;100.00
10897;BME280;5501;51.176;6.470;2022-09-09T01:16:10;100309.66;;;16.49;100.00
10897;BME280;5501;51.176;6.470;2022-09-09T01:21:27;100294.91;;;16.42;100.00
10897;BME280;5501;51.176;6.470;2022-09-09T01:32:00;100302.41;;;16.51;100.00
10897;BME280;5501;51.176;6.470;2022-09-09T01:37:06;100294.06;;;16.40;100.00
10897;BME280;5501;51.176;6.470;2022-09-09T01:42:13;100297.47;;;16.59;100.00
10897;BME280;5501;51.176;6.470;2022-09-09T01:47:16;100302.41;;;16.51;100.00
10897;BME280;5501;51.176;6.470;2022-09-09T01:52:58;100298.75;;;16.52;100.00
10897;BME280;5501;51.176;6.470;2022-09-09T01:58:09;100299.63;;;16.37;100.00
10897;BME280;5501;51.176;6.470;2022-09-09T02:03:26;100298.78;;;16.37;100.00
10897;BME280;5501;51.176;6.470;2022-09-09T02:08:49;100293.94;;;16.43;100.00
10897;BME280;5501;51.176;6.470;2022-09-09T02:13:57;100285.59;;;16.63;100.00
10897;BME280;5501;51.176;6.470;2022-09-09T02:24:21;100294.94;;;16.56;100.00
10897;BME280;5501;51.176;6.470;2022-09-09T02:29:36;100290.97;;;16.63;100.00
10897;BME280;5501;51.176;6.470;2022-09-09T02:34:51;100289.72;;;16.69;100.00
10897;BME280;5501;51.176;6.470;2022-09-09T02:39:55;100284.34;;;16.69;100.00
10897;BME280;5501;51.176;6.470;2022-09-09T02:44:58;100278.13;;;16.68;100.00
10897;BME280;5501;51.176;6.470;2022-09-09T02:50:25;100271.69;;;16.71;100.00
10897;BME280;5501;51.176;6.470;2022-09-09T02:55:41;100273.78;;;16.66;100.00
10897;BME280;5501;51.176;6.470;2022-09-09T03:00:48;100266.50;;;16.68;100.00
10897;BME280;5501;51.176;6.470;2022-09-09T03:05:52;100259.63;;;16.78;100.00
10897;BME280;5501;51.176;6.470;2022-09-09T03:10:54;100270.16;;;16.67;100.00
10897;BME280;5501;51.176;6.470;2022-09-09T03:15:59;100268.16;;;16.70;100.00
10897;BME280;5501;51.176;6.470;2022-09-09T03:21:03;100268.41;;;16.66;100.00
10897;BME280;5501;51.176;6.470;2022-09-09T03:26:06;100275.03;;;16.60;100.00
10897;BME280;5501;51.176;6.470;2022-09-09T03:31:14;100271.19;;;16.64;100.00
10897;BME280;5501;51.176;6.470;2022-09-09T03:36:17;100263.94;;;16.66;100.00
10897;BME280;5501;51.176;6.470;2022-09-09T03:41:18;100270.63;;;16.73;100.00
10897;BME280;5501;51.176;6.470;2022-09-09T03:46:23;100277.75;;;16.74;100.00
10897;BME280;5501;51.176;6.470;2022-09-09T03:51:25;100272.41;;;16.74;100.00
10897;BME280;5501;51.176;6.470;2022-09-09T03:56:27;100267.19;;;16.71;100.00
10897;BME280;5501;51.176;6.470;2022-09-09T04:01:30;100259.72;;;16.76;100.00
10897;BME280;5501;51.176;6.470;2022-09-09T04:06:32;100268.75;;;16.75;100.00
10897;BME280;5501;51.176;6.470;2022-09-09T04:11:33;100264.53;;;16.85;100.00
10897;BME280;5501;51.176;6.470;2022-09-09T04:16:35;100266.47;;;16.83;100.00
10897;BME280;5501;51.176;6.470;2022-09-09T04:21:41;100272.59;;;16.85;100.00
10897;BME280;5501;51.176;6.470;2022-09-09T04:26:43;100266.38;;;16.85;100.00
10897;BME280;5501;51.176;6.470;2022-09-09T04:31:45;100269.91;;;16.85;100.00
10897;BME280;5501;51.176;6.470;2022-09-09T04:36:47;100268.75;;;16.89;100.00
10897;BME280;5501;51.176;6.470;2022-09-09T04:41:48;100266.88;;;17.05;100.00
10897;BME280;5501;51.176;6.470;2022-09-09T04:46:51;100263.22;;;17.06;100.00
10897;BME280;5501;51.176;6.470;2022-09-09T04:51:54;100263.34;;;17.19;100.00
10897;BME280;5501;51.176;6.470;2022-09-09T04:56:56;100269.00;;;17.28;100.00
10897;BME280;5501;51.176;6.470;2022-09-09T05:01:58;100263.34;;;17.19;100.00
10897;BME280;5501;51.176;6.470;2022-09-09T05:07:03;100265.34;;;17.29;100.00
10897;BME280;5501;51.176;6.470;2022-09-09T05:12:04;100259.97;;;17.29;100.00
10897;BME280;5501;51.176;6.470;2022-09-09T05:17:10;100262.91;;;17.40;100.00
10897;BME280;5501;51.176;6.470;2022-09-09T05:22:18;100257.69;;;17.37;100.00
10897;BME280;5501;51.176;6.470;2022-09-09T05:27:21;100259.06;;;17.44;100.00
10897;BME280;5501;51.176;6.470;2022-09-09T05:32:24;100261.84;;;17.43;100.00
10897;BME280;5501;51.176;6.470;2022-09-09T05:37:26;100261.22;;;17.24;100.00
10897;BME280;5501;51.176;6.470;2022-09-09T05:42:31;100258.06;;;17.17;100.00
10897;BME280;5501;51.176;6.470;2022-09-09T05:47:35;100264.22;;;17.19;100.00
10897;BME280;5501;51.176;6.470;2022-09-09T05:52:41;100264.22;;;17.19;100.00
10897;BME280;5501;51.176;6.470;2022-09-09T05:57:48;100262.84;;;17.12;100.00
10897;BME280;5501;51.176;6.470;2022-09-09T06:02:51;100269.78;;;17.16;100.00
10897;BME280;5501;51.176;6.470;2022-09-09T06:07:55;100278.41;;;17.21;100.00
10897;BME280;5501;51.176;6.470;2022-09-09T06:12:58;100278.03;;;17.27;100.00
10897;BME280;5501;51.176;6.470;2022-09-09T06:17:59;100286.50;;;17.35;100.00
10897;BME280;5501;51.176;6.470;2022-09-09T06:23:03;100275.38;;;17.41;100.00
10897;BME280;5501;51.176;6.470;2022-09-09T06:28:05;100280.88;;;17.54;100.00
10897;BME280;5501;51.176;6.470;2022-09-09T06:33:08;100281.13;;;17.63;100.00
10897;BME280;5501;51.176;6.470;2022-09-09T06:38:11;100278.63;;;17.74;100.00
10897;BME280;5501;51.176;6.470;2022-09-09T06:43:12;100278.09;;;17.96;99.99
10897;BME280;5501;51.176;6.470;2022-09-09T06:48:21;100279.72;;;17.98;98.81
10897;BME280;5501;51.176;6.470;2022-09-09T06:53:23;100282.00;;;17.78;97.63
10897;BME280;5501;51.176;6.470;2022-09-09T06:58:26;100283.63;;;17.80;98.63
10897;BME280;5501;51.176;6.470;2022-09-09T07:03:29;100290.53;;;17.84;96.27
10897;BME280;5501;51.176;6.470;2022-09-09T07:08:31;100297.72;;;17.84;96.77
10897;BME280;5501;51.176;6.470;2022-09-09T07:13:34;100291.00;;;17.91;95.50
10897;BME280;5501;51.176;6.470;2022-09-09T07:18:36;100293.97;;;17.86;94.32
10897;BME280;5501;51.176;6.470;2022-09-09T07:23:39;100306.09;;;17.93;92.63
10897;BME280;5501;51.176;6.470;2022-09-09T07:28:42;100306.28;;;17.90;93.46
10897;BME280;5501;51.176;6.470;2022-09-09T07:33:44;100297.63;;;17.85;94.51
10897;BME280;5501;51.176;6.470;2022-09-09T07:38:48;100296.91;;;18.10;91.71
10897;BME280;5501;51.176;6.470;2022-09-09T07:43:51;100303.47;;;18.46;90.21
10897;BME280;5501;51.176;6.470;2022-09-09T07:48:56;100302.41;;;18.49;90.22
10897;BME280;5501;51.176;6.470;2022-09-09T07:54:07;100314.94;;;18.62;88.84
10897;BME280;5501;51.176;6.470;2022-09-09T07:59:14;100304.53;;;18.70;88.57
10897;BME280;5501;51.176;6.470;2022-09-09T08:04:18;100299.59;;;18.77;86.64
10897;BME280;5501;51.176;6.470;2022-09-09T08:09:21;100298.53;;;18.92;86.54
10897;BME280;5501;51.176;6.470;2022-09-09T08:14:26;100305.06;;;19.14;84.09
10897;BME280;5501;51.176;6.470;2022-09-09T08:19:30;100298.94;;;19.37;82.71
10897;BME280;5501;51.176;6.470;2022-09-09T08:24:35;100303.78;;;19.32;80.44
10897;BME280;5501;51.176;6.470;2022-09-09T08:29:37;100316.28;;;19.33;80.58
10897;BME280;5501;51.176;6.470;2022-09-09T08:34:39;100315.06;;;19.12;80.67
10897;BME280;5501;51.176;6.470;2022-09-09T08:39:50;100318.44;;;19.28;80.37
10897;BME280;5501;51.176;6.470;2022-09-09T08:55:48;100331.19;;;19.51;79.68
10897;BME280;5501;51.176;6.470;2022-09-09T09:11:42;100339.84;;;19.69;77.05
10897;BME280;5501;51.176;6.470;2022-09-09T09:22:15;100347.09;;;20.30;71.71
10897;BME280;5501;51.176;6.470;2022-09-09T09:27:40;100336.06;;;20.33;71.70
10897;BME280;5501;51.176;6.470;2022-09-09T09:33:44;100326.75;;;20.37;71.00
10897;BME280;5501;51.176;6.470;2022-09-09T09:38:29;100337.03;;;20.32;70.19
10897;BME280;5501;51.176;6.470;2022-09-09T09:43:53;100340.41;;;20.23;69.56
10897;BME280;5501;51.176;6.470;2022-09-09T09:49:02;100344.28;;;20.55;68.09
10897;BME280;5501;51.176;6.470;2022-09-09T09:59:39;100331.41;;;20.35;69.21
10897;BME280;5501;51.176;6.470;2022-09-09T10:05:06;100330.38;;;20.25;69.78
10897;BME280;5501;51.176;6.470;2022-09-09T10:10:19;100333.63;;;20.05;70.00
10897;BME280;5501;51.176;6.470;2022-09-09T10:36:32;100340.16;;;20.85;65.14
10897;BME280;5501;51.176;6.470;2022-09-09T10:41:42;100314.31;;;20.81;65.14
10897;BME280;5501;51.176;6.470;2022-09-09T10:46:59;100327.94;;;20.69;64.96
10897;BME280;5501;51.176;6.470;2022-09-09T10:57:48;100333.47;;;20.78;65.59
10897;BME280;5501;51.176;6.470;2022-09-09T11:03:01;100320.47;;;20.60;65.67
10897;BME280;5501;51.176;6.470;2022-09-09T11:08:11;100317.31;;;20.89;64.66
10897;BME280;5501;51.176;6.470;2022-09-09T11:13:26;100320.66;;;20.93;66.11
10897;BME280;5501;51.176;6.470;2022-09-09T11:18:38;100326.06;;;21.27;66.62
10897;BME280;5501;51.176;6.470;2022-09-09T11:23:42;100319.31;;;21.33;65.45
10897;BME280;5501;51.176;6.470;2022-09-09T11:45:09;100326.22;;;21.37;66.75
10897;BME280;5501;51.176;6.470;2022-09-09T12:00:48;100315.81;;;21.09;66.92
10897;BME280;5501;51.176;6.470;2022-09-09T12:05:50;100321.53;;;20.93;67.65
10897;BME280;5501;51.176;6.470;2022-09-09T12:10:55;100320.59;;;21.05;67.35
10897;BME280;5501;51.176;6.470;2022-09-09T12:16:01;100318.59;;;20.96;68.70
10897;BME280;5501;51.176;6.470;2022-09-09T12:32:04;100346.41;;;19.77;83.85
10897;BME280;5501;51.176;6.470;2022-09-09T12:37:31;100356.66;;;19.47;92.89
10897;BME280;5501;51.176;6.470;2022-09-09T12:42:40;100352.06;;;19.10;98.49
10897;BME280;5501;51.176;6.470;2022-09-09T12:47:49;100340.44;;;19.22;100.00
10897;BME280;5501;51.176;6.470;2022-09-09T12:52:55;100342.84;;;19.39;100.00
10897;BME280;5501;51.176;6.470;2022-09-09T12:58:00;100324.72;;;19.41;99.21
10897;BME280;5501;51.176;6.470;2022-09-09T13:03:18;100320.16;;;19.54;98.26
10897;BME280;5501;51.176;6.470;2022-09-09T13:08:20;100315.88;;;19.64;96.78
10897;BME280;5501;51.176;6.470;2022-09-09T13:13:35;100313.69;;;19.69;96.48
10897;BME280;5501;51.176;6.470;2022-09-09T13:18:40;100307.41;;;19.81;97.31
10897;BME280;5501;51.176;6.470;2022-09-09T13:23:49;100297.50;;;19.69;100.00
10897;BME280;5501;51.176;6.470;2022-09-09T13:28:52;100282.22;;;19.45;98.75
10897;BME280;5501;51.176;6.470;2022-09-09T13:33:54;100285.88;;;19.56;100.00
10897;BME280;5501;51.176;6.470;2022-09-09T13:38:58;100278.84;;;20.02;99.86
10897;BME280;5501;51.176;6.470;2022-09-09T13:44:02;100273.94;;;20.33;97.55
10897;BME280;5501;51.176;6.470;2022-09-09T13:54:11;100267.44;;;20.35;90.38
10897;BME280;5501;51.176;6.470;2022-09-09T13:59:16;100274.69;;;20.35;85.94
10897;BME280;5501;51.176;6.470;2022-09-09T14:04:18;100317.78;;;19.88;81.71
10897;BME280;5501;51.176;6.470;2022-09-09T14:09:22;100338.09;;;18.91;84.33
10897;BME280;5501;51.176;6.470;2022-09-09T14:14:23;100328.31;;;18.23;91.50
10897;BME280;5501;51.176;6.470;2022-09-09T14:19:26;100327.09;;;18.15;94.34
10897;BME280;5501;51.176;6.470;2022-09-09T14:24:27;100341.13;;;18.06;93.61
10897;BME280;5501;51.176;6.470;2022-09-09T14:29:29;100334.72;;;17.94;97.16
10897;BME280;5501;51.176;6.470;2022-09-09T14:34:30;100329.81;;;17.73;100.00
10897;BME280;5501;51.176;6.470;2022-09-09T14:39:33;100307.75;;;17.82;100.00
10897;BME280;5501;51.176;6.470;2022-09-09T14:44:35;100301.47;;;17.81;100.00
10897;BME280;5501;51.176;6.470;2022-09-09T14:49:37;100305.19;;;18.07;100.00
10897;BME280;5501;51.176;6.470;2022-09-09T14:54:43;100295.09;;;18.10;100.00
10897;BME280;5501;51.176;6.470;2022-09-09T14:59:45;100293.22;;;18.39;100.00
10897;BME280;5501;51.176;6.470;2022-09-09T15:04:46;100276.84;;;18.42;100.00
10897;BME280;5501;51.176;6.470;2022-09-09T15:09:48;100273.84;;;18.85;100.00
10897;BME280;5501;51.176;6.470;2022-09-09T15:14:50;100258.66;;;19.09;99.43
10897;BME280;5501;51.176;6.470;2022-09-09T15:19:53;100259.97;;;19.41;99.48
10897;BME280;5501;51.176;6.470;2022-09-09T15:24:56;100272.38;;;19.56;97.27
10897;BME280;5501;51.176;6.470;2022-09-09T15:29:58;100273.31;;;19.68;97.10
10897;BME280;5501;51.176;6.470;2022-09-09T15:34:59;100267.59;;;19.72;99.22
10897;BME280;5501;51.176;6.470;2022-09-09T15:40:02;100281.19;;;19.83;97.95
10897;BME280;5501;51.176;6.470;2022-09-09T15:45:04;100279.31;;;19.97;97.84
10897;BME280;5501;51.176;6.470;2022-09-09T15:50:07;100279.59;;;19.68;96.69
10897;BME280;5501;51.176;6.470;2022-09-09T15:55:08;100275.41;;;19.39;99.64
10897;BME280;5501;51.176;6.470;2022-09-09T16:00:10;100274.44;;;19.40;100.00
10897;BME280;5501;51.176;6.470;2022-09-09T16:05:14;100280.03;;;19.37;100.00
10897;BME280;5501;51.176;6.470;2022-09-09T16:10:16;100281.47;;;19.30;99.37
10897;BME280;5501;51.176;6.470;2022-09-09T16:15:17;100287.81;;;19.29;100.00
10897;BME280;5501;51.176;6.470;2022-09-09T16:20:21;100303.47;;;19.24;100.00
10897;BME280;5501;51.176;6.470;2022-09-09T16:25:22;100295.50;;;18.96;100.00
10897;BME280;5501;51.176;6.470;2022-09-09T16:30:24;100295.28;;;18.87;100.00
10897;BME280;5501;51.176;6.470;2022-09-09T16:35:25;100283.00;;;18.95;100.00
10897;BME280;5501;51.176;6.470;2022-09-09T16:40:27;100291.13;;;19.08;100.00
10897;BME280;5501;51.176;6.470;2022-09-09T16:45:29;100289.72;;;19.02;100.00
10897;BME280;5501;51.176;6.470;2022-09-09T16:50:31;100291.53;;;19.02;100.00
10897;BME280;5501;51.176;6.470;2022-09-09T16:55:32;100296.38;;;19.09;100.00
10897;BME280;5501;51.176;6.470;2022-09-09T17:00:34;100295.91;;;19.29;100.00
10897;BME280;5501;51.176;6.470;2022-09-09T17:05:40;100294.03;;;19.17;100.00
10897;BME280;5501;51.176;6.470;2022-09-09T17:10:42;100300.28;;;19.05;100.00
10897;BME280;5501;51.176;6.470;2022-09-09T17:15:44;100305.06;;;19.14;100.00
10897;BME280;5501;51.176;6.470;2022-09-09T17:20:46;100310.19;;;19.17;100.00
10897;BME280;5501;51.176;6.470;2022-09-09T17:25:56;100307.63;;;19.16;100.00
10897;BME280;5501;51.176;6.470;2022-09-09T17:30:58;100326.19;;;19.20;100.00
10897;BME280;5501;51.176;6.470;2022-09-09T17:36:31;100329.91;;;19.05;100.00
10897;BME280;5501;51.176;6.470;2022-09-09T17:41:36;100342.44;;;19.06;100.00
10897;BME280;5501;51.176;6.470;2022-09-09T17:46:40;100347.50;;;18.98;100.00
10897;BME280;5501;51.176;6.470;2022-09-09T17:51:44;100346.56;;;18.73;100.00
10897;BME280;5501;51.176;6.470;2022-09-09T17:56:47;100348.72;;;18.80;100.00
10897;BME280;5501;51.176;6.470;2022-09-09T18:01:49;100352.47;;;18.65;100.00
10897;BME280;5501;51.176;6.470;2022-09-09T18:06:52;100355.34;;;18.62;100.00
10897;BME280;5501;51.176;6.470;2022-09-09T18:11:58;100356.81;;;18.54;100.00
10897;BME280;5501;51.176;6.470;2022-09-09T18:17:01;100372.72;;;18.44;100.00
10897;BME280;5501;51.176;6.470;2022-09-09T18:22:04;100372.25;;;18.38;100.00
10897;BME280;5501;51.176;6.470;2022-09-09T18:27:07;100381.00;;;18.27;100.00
10897;BME280;5501;51.176;6.470;2022-09-09T18:32:08;100382.44;;;18.33;100.00
10897;BME280;5501;51.176;6.470;2022-09-09T18:37:10;100394.66;;;18.38;100.00
10897;BME280;5501;51.176;6.470;2022-09-09T18:42:11;100387.34;;;18.40;100.00
10897;BME280;5501;51.176;6.470;2022-09-09T18:47:13;100396.38;;;18.39;100.00
10897;BME280;5501;51.176;6.470;2022-09-09T18:52:16;100397.91;;;18.43;100.00
10897;BME280;5501;51.176;6.470;2022-09-09T18:57:17;100393.41;;;18.44;100.00
10897;BME280;5501;51.176;6.470;2022-09-09T19:02:19;100406.97;;;18.42;100.00
10897;BME280;5501;51.176;6.470;2022-09-09T19:07:21;100416.66;;;18.45;100.00
10897;BME280;5501;51.176;6.470;2022-09-09T19:12:23;100411.69;;;18.39;100.00
10897;BME280;5501;51.176;6.470;2022-09-09T19:17:25;100400.06;;;18.38;100.00
10897;BME280;5501;51.176;6.470;2022-09-09T19:22:27;100413.59;;;18.37;100.00
10897;BME280;5501;51.176;6.470;2022-09-09T19:27:29;100434.88;;;18.41;100.00
10897;BME280;5501;51.176;6.470;2022-09-09T19:32:31;100439.75;;;18.21;100.00
10897;BME280;5501;51.176;6.470;2022-09-09T19:37:52;100436.22;;;18.20;100.00
10897;BME280;5501;51.176;6.470;2022-09-09T19:42:54;100440.91;;;18.03;100.00
10897;BME280;5501;51.176;6.470;2022-09-09T19:47:56;100443.88;;;17.98;100.00
10897;BME280;5501;51.176;6.470;2022-09-09T19:52:57;100446.28;;;18.03;100.00
10897;BME280;5501;51.176;6.470;2022-09-09T19:58:00;100452.94;;;17.97;100.00
10897;BME280;5501;51.176;6.470;2022-09-09T20:03:02;100455.59;;;17.83;100.00
10897;BME280;5501;51.176;6.470;2022-09-09T20:08:20;100459.47;;;17.93;100.00
10897;BME280;5501;51.176;6.470;2022-09-09T20:13:21;100466.16;;;17.86;100.00
10897;BME280;5501;51.176;6.470;2022-09-09T20:18:26;100464.44;;;17.85;100.00
10897;BME280;5501;51.176;6.470;2022-09-09T20:23:28;100468.63;;;17.75;100.00
10897;BME280;5501;51.176;6.470;2022-09-09T20:28:30;100468.47;;;17.78;100.00
10897;BME280;5501;51.176;6.470;2022-09-09T20:33:33;100466.75;;;17.77;100.00
10897;BME280;5501;51.176;6.470;2022-09-09T20:38:49;100473.47;;;17.84;100.00
10897;BME280;5501;51.176;6.470;2022-09-09T20:43:55;100475.19;;;17.85;100.00
10897;BME280;5501;51.176;6.470;2022-09-09T20:48:57;100474.53;;;17.82;100.00
10897;BME280;5501;51.176;6.470;2022-09-09T20:54:09;100466.59;;;18.08;100.00
10897;BME280;5501;51.176;6.470;2022-09-09T20:59:13;100473.78;;;17.94;100.00
10897;BME280;5501;51.176;6.470;2022-09-09T21:04:17;100471.25;;;17.77;100.00
10897;BME280;5501;51.176;6.470;2022-09-09T21:09:19;100470.56;;;17.73;100.00
10897;BME280;5501;51.176;6.470;2022-09-09T21:14:23;100472.47;;;17.71;100.00
10897;BME280;5501;51.176;6.470;2022-09-09T21:19:25;100465.53;;;17.53;100.00
10897;BME280;5501;51.176;6.470;2022-09-09T21:24:26;100455.56;;;17.55;100.00
10897;BME280;5501;51.176;6.470;2022-09-09T21:29:28;100466.03;;;17.60;100.00
10897;BME280;5501;51.176;6.470;2022-09-09T21:34:33;100468.41;;;17.50;100.00
10897;BME280;5501;51.176;6.470;2022-09-09T21:39:35;100471.88;;;17.52;100.00
10897;BME280;5501;51.176;6.470;2022-09-09T21:44:36;100463.41;;;17.44;100.00
10897;BME280;5501;51.176;6.470;2022-09-09T21:49:38;100463.56;;;17.41;100.00
10897;BME280;5501;51.176;6.470;2022-09-09T21:54:40;100455.06;;;17.33;100.00
10897;BME280;5501;51.176;6.470;2022-09-09T21:59:43;100467.47;;;17.36;100.00
10897;BME280;5501;51.176;6.470;2022-09-09T22:04:45;100459.00;;;17.43;100.00
10897;BME280;5501;51.176;6.470;2022-09-09T22:09:46;100455.41;;;17.43;100.00
10897;BME280;5501;51.176;6.470;2022-09-09T22:14:48;100461.47;;;17.46;100.00
10897;BME280;5501;51.176;6.470;2022-09-09T22:19:50;100463.13;;;17.33;100.00
10897;BME280;5501;51.176;6.470;2022-09-09T22:24:51;100467.75;;;17.31;100.00
10897;BME280;5501;51.176;6.470;2022-09-09T22:29:53;100462.97;;;17.36;100.00
10897;BME280;5501;51.176;6.470;2022-09-09T22:34:55;100463.63;;;17.40;100.00
10897;BME280;5501;51.176;6.470;2022-09-09T22:39:56;100465.81;;;17.33;100.00
10897;BME280;5501;51.176;6.470;2022-09-09T22:44:58;100464.66;;;17.23;100.00
10897;BME280;5501;51.176;6.470;2022-09-09T22:50:01;100468.63;;;17.16;100.00
10897;BME280;5501;51.176;6.470;2022-09-09T22:55:03;100467.59;;;17.19;100.00
10897;BME280;5501;51.176;6.470;2022-09-09T23:00:05;100472.47;;;17.12;100.00
10897;BME280;5501;51.176;6.470;2022-09-09T23:05:10;100465.50;;;17.24;100.00
10897;BME280;5501;51.176;6.470;2022-09-09T23:10:12;100468.97;;;17.26;100.00
10897;BME280;5501;51.176;6.470;2022-09-09T23:15:14;100475.03;;;17.29;100.00
10897;BME280;5501;51.176;6.470;2022-09-09T23:20:15;100475.97;;;17.28;100.00
10897;BME280;5501;51.176;6.470;2022-09-09T23:25:19;100476.16;;;17.25;100.00
10897;BME280;5501;51.176;6.470;2022-09-09T23:30:21;100483.03;;;17.15;100.00
10897;BME280;5501;51.176;6.470;2022-09-09T23:35:23;100479.56;;;17.13;99.80
10897;BME280;5501;51.176;6.470;2022-09-09T23:40:24;100486.88;;;17.11;99.60
10897;BME280;5501;51.176;6.470;2022-09-09T23:45:27;100488.22;;;17.18;99.78
10897;BME280;5501;51.176;6.470;2022-09-09T23:50:28;100483.72;;;17.19;99.11
10897;BME280;5501;51.176;6.470;2022-09-09T23:55:30;100491.53;;;17.23;100.00
